Time;durP1;ratioP1;P1;durP2;ratioP2;P2;SDS_P1;SDS_P2;PMS_P1;PMS_P2;Temp;Humidity;BMP_temperature;BMP_pressure;BME280_temperature;BME280_humidity;BME280_pressure;Samples;Min_cycle;Max_cycle;Signal;HPM_P1;HPM_P2
2021/01/13 00:02:10;;;;;;;17.35;12.93;;;;;;;;;;5047673;28;20040;-83
2021/01/13 00:04:37;;;;;;;18.30;12.75;;;;;;;;;;5047568;28;20029;-85
2021/01/13 00:07:03;;;;;;;17.63;12.82;;;;;;;;;;5047986;28;20036;-85
2021/01/13 00:09:29;;;;;;;18.02;12.80;;;;;;;;;;5047513;28;20053;-84
2021/01/13 00:11:57;;;;;;;16.92;12.40;;;;;;;;;;5047257;28;20175;-79
2021/01/13 00:14:23;;;;;;;19.00;12.90;;;;;;;;;;5031523;28;20018;-80
2021/01/13 00:16:49;;;;;;;17.42;12.88;;;;;;;;;;5032114;28;20504;-82
2021/01/13 00:19:16;;;;;;;17.10;12.23;;;;;;;;;;5031288;28;20025;-77
2021/01/13 00:21:47;;;;;;;17.52;12.77;;;;;;;;;;5051017;28;20455;-78
2021/01/13 00:24:13;;;;;;;17.42;12.00;;;;;;;;;;5051095;28;20473;-78
2021/01/13 00:26:39;;;;;;;18.55;12.20;;;;;;;;;;5052160;28;20037;-77
2021/01/13 00:29:05;;;;;;;16.13;11.80;;;;;;;;;;5053265;28;20013;-77
2021/01/13 00:31:31;;;;;;;24.27;11.45;;;;;;;;;;5054966;28;20028;-77
2021/01/13 00:33:57;;;;;;;17.63;11.82;;;;;;;;;;5041293;28;20509;-77
2021/01/13 00:36:24;;;;;;;17.70;11.63;;;;;;;;;;5052915;28;20074;-78
2021/01/13 00:38:50;;;;;;;17.88;11.32;;;;;;;;;;5053718;28;20053;-78
2021/01/13 00:41:16;;;;;;;15.13;10.95;;;;;;;;;;5053906;28;20037;-77
2021/01/13 00:43:43;;;;;;;15.07;10.82;;;;;;;;;;5053664;28;20013;-78
2021/01/13 00:46:09;;;;;;;17.77;10.57;;;;;;;;;;5054956;28;20076;-77
2021/01/13 00:48:35;;;;;;;15.60;10.95;;;;;;;;;;5054975;28;20021;-76
2021/01/13 00:51:01;;;;;;;14.65;10.75;;;;;;;;;;5040462;28;20036;-77
2021/01/13 00:53:27;;;;;;;14.63;10.80;;;;;;;;;;5034834;28;20021;-77
2021/01/13 00:55:53;;;;;;;14.68;10.82;;;;;;;;;;5033470;28;20013;-78
2021/01/13 00:58:19;;;;;;;16.05;11.43;;;;;;;;;;5034794;28;20637;-78
2021/01/13 01:00:45;;;;;;;15.55;10.65;;;;;;;;;;5034761;28;20433;-78
2021/01/13 01:03:11;;;;;;;16.55;11.90;;;;;;;;;;5036302;28;20874;-78
2021/01/13 01:05:37;;;;;;;17.92;11.82;;;;;;;;;;5054547;28;20037;-78
2021/01/13 01:08:03;;;;;;;17.23;11.43;;;;;;;;;;5053323;28;20060;-77
2021/01/13 01:10:31;;;;;;;16.98;11.43;;;;;;;;;;5054664;28;20071;-78
2021/01/13 01:12:57;;;;;;;15.00;11.57;;;;;;;;;;5053372;28;20025;-78
2021/01/13 01:15:23;;;;;;;17.20;12.07;;;;;;;;;;5054447;28;20028;-78
2021/01/13 01:17:50;;;;;;;17.10;12.52;;;;;;;;;;5054685;28;20144;-78
2021/01/13 01:20:16;;;;;;;17.63;12.20;;;;;;;;;;5053256;28;20031;-78
2021/01/13 01:23:01;;;;;;;19.55;12.70;;;;;;;;;;5053188;28;20128;-77
2021/01/13 01:25:28;;;;;;;16.02;12.20;;;;;;;;;;5053100;28;20029;-78
2021/01/13 01:27:54;;;;;;;18.15;13.02;;;;;;;;;;5053273;28;20021;-77
2021/01/13 01:30:21;;;;;;;16.65;12.48;;;;;;;;;;5054386;28;20025;-78
2021/01/13 01:32:48;;;;;;;17.38;11.98;;;;;;;;;;5054457;28;20104;-77
2021/01/13 01:35:15;;;;;;;16.02;12.55;;;;;;;;;;5054382;28;20602;-78
2021/01/13 01:37:41;;;;;;;18.15;12.73;;;;;;;;;;5052610;28;20056;-78
2021/01/13 01:40:08;;;;;;;16.90;12.52;;;;;;;;;;5052785;28;20044;-78
2021/01/13 01:42:35;;;;;;;18.02;13.60;;;;;;;;;;5053030;28;20033;-78
2021/01/13 01:45:01;;;;;;;17.52;12.65;;;;;;;;;;5054221;28;20033;-78
2021/01/13 01:47:53;;;;;;;16.65;12.10;;;;;;;;;;5054063;28;20017;-78
2021/01/13 01:50:22;;;;;;;16.20;12.30;;;;;;;;;;5045433;28;20073;-78
2021/01/13 01:52:49;;;;;;;16.52;12.45;;;;;;;;;;5054018;28;20017;-77
2021/01/13 01:55:16;;;;;;;16.92;12.75;;;;;;;;;;5053761;28;20025;-77
2021/01/13 01:57:43;;;;;;;18.50;13.50;;;;;;;;;;5052189;28;20032;-78
2021/01/13 02:00:17;;;;;;;18.23;12.70;;;;;;;;;;5053413;28;20029;-77
2021/01/13 02:02:50;;;;;;;17.05;12.80;;;;;;;;;;5053215;28;20025;-78
2021/01/13 02:05:17;;;;;;;19.48;13.02;;;;;;;;;;5052989;28;20116;-78
2021/01/13 02:07:48;;;;;;;15.98;11.65;;;;;;;;;;5053361;28;20411;-78
2021/01/13 02:10:14;;;;;;;15.30;11.38;;;;;;;;;;5051633;28;20555;-78
2021/01/13 02:12:46;;;;;;;17.50;12.68;;;;;;;;;;5051532;28;20025;-78
2021/01/13 02:15:12;;;;;;;16.50;12.40;;;;;;;;;;5052730;28;20051;-78
2021/01/13 02:17:38;;;;;;;17.98;11.90;;;;;;;;;;5052508;28;20091;-78
2021/01/13 02:20:06;;;;;;;24.55;12.70;;;;;;;;;;5052471;28;20096;-79
2021/01/13 02:22:39;;;;;;;17.52;12.23;;;;;;;;;;5052647;28;20078;-78
2021/01/13 02:25:11;;;;;;;19.10;12.25;;;;;;;;;;5052660;28;20492;-77
2021/01/13 02:27:37;;;;;;;18.77;12.32;;;;;;;;;;5053538;28;20159;-78
2021/01/13 02:30:06;;;;;;;16.83;12.77;;;;;;;;;;5052128;28;20033;-77
2021/01/13 02:32:38;;;;;;;15.80;11.75;;;;;;;;;;5053022;28;20017;-78
2021/01/13 02:35:04;;;;;;;;;;;;;;;;;;5052119;28;20036;-77
2021/01/13 02:37:36;;;;;;;17.92;12.35;;;;;;;;;;5051932;28;19904;-78
2021/01/13 02:40:07;;;;;;;17.27;12.50;;;;;;;;;;5053190;28;20073;-78
2021/01/13 02:42:36;;;;;;;18.33;13.23;;;;;;;;;;5053316;28;20026;-77
2021/01/13 02:45:06;;;;;;;17.73;12.88;;;;;;;;;;5051800;28;20151;-79
2021/01/13 02:47:58;;;;;;;19.52;12.85;;;;;;;;;;5051795;28;20048;-78
2021/01/13 02:50:29;;;;;;;18.40;13.07;;;;;;;;;;5035998;28;20033;-78
2021/01/13 02:53:10;;;;;;;17.23;12.60;;;;;;;;;;5052972;28;20049;-77
2021/01/13 02:55:40;;;;;;;19.38;12.90;;;;;;;;;;5052926;28;20043;-78
2021/01/13 02:58:06;;;;;;;18.23;12.90;;;;;;;;;;5051488;28;20501;-78
2021/01/13 03:00:33;;;;;;;18.60;12.60;;;;;;;;;;5052867;28;20021;-77
2021/01/13 03:03:01;;;;;;;17.52;13.25;;;;;;;;;;5051430;28;20025;-78
2021/01/13 03:05:28;;;;;;;17.63;12.30;;;;;;;;;;5052490;28;20068;-78
2021/01/13 03:07:57;;;;;;;15.45;11.48;;;;;;;;;;5052550;28;20017;-77
2021/01/13 03:10:25;;;;;;;15.60;11.68;;;;;;;;;;5052335;28;20025;-78
2021/01/13 03:12:57;;;;;;;16.15;11.38;;;;;;;;;;5051819;28;20014;-78
2021/01/13 03:15:23;;;;;;;16.20;11.87;;;;;;;;;;5050356;28;20104;-78
2021/01/13 03:18:09;;;;;;;13.45;9.93;;;;;;;;;;5050549;28;20021;-77
2021/01/13 03:20:51;;;;;;;14.65;10.13;;;;;;;;;;5051664;28;20044;-77
2021/01/13 03:23:23;;;;;;;15.48;10.68;;;;;;;;;;5050408;28;20025;-77
2021/01/13 03:25:52;;;;;;;13.32;9.68;;;;;;;;;;5051623;28;20045;-78
2021/01/13 03:28:19;;;;;;;15.38;10.00;;;;;;;;;;5051508;28;20735;-78
2021/01/13 03:30:49;;;;;;;13.15;9.40;;;;;;;;;;5049007;28;20416;-78
2021/01/13 03:33:25;;;;;;;12.38;9.02;;;;;;;;;;5050254;28;20021;-77
2021/01/13 03:35:59;;;;;;;14.40;8.73;;;;;;;;;;5051441;28;20060;-78
2021/01/13 03:38:28;;;;;;;12.27;8.90;;;;;;;;;;5050283;28;20136;-79
2021/01/13 03:41:03;;;;;;;11.07;8.30;;;;;;;;;;5051726;28;20107;-78
2021/01/13 03:43:35;;;;;;;11.18;7.63;;;;;;;;;;5051948;28;20060;-78
2021/01/13 03:46:03;;;;;;;11.90;7.75;;;;;;;;;;5051713;28;20029;-78
2021/01/13 03:48:44;;;;;;;11.63;7.57;;;;;;;;;;5051906;28;20021;-78
2021/01/13 03:51:26;;;;;;;11.60;7.07;;;;;;;;;;5050396;28;20119;-78
2021/01/13 03:53:52;;;;;;;13.82;6.68;;;;;;;;;;5050283;28;20048;-78
2021/01/13 03:56:25;;;;;;;10.75;7.10;;;;;;;;;;5050204;28;20059;-78
2021/01/13 03:58:51;;;;;;;;;;;;;;;;;;5050759;28;20025;-78
2021/01/13 04:01:17;;;;;;;8.50;6.07;;;;;;;;;;5050254;28;19991;-78
2021/01/13 04:03:55;;;;;;;10.35;6.15;;;;;;;;;;5050399;28;20021;-78
2021/01/13 04:06:21;;;;;;;9.10;5.90;;;;;;;;;;5051478;28;20025;-77
2021/01/13 04:08:48;;;;;;;9.30;6.18;;;;;;;;;;5051510;28;20028;-77
2021/01/13 04:11:16;;;;;;;8.32;5.68;;;;;;;;;;5050174;28;20025;-77
2021/01/13 04:13:43;;;;;;;9.55;5.88;;;;;;;;;;5051626;28;20051;-78
2021/01/13 04:16:10;;;;;;;11.82;6.35;;;;;;;;;;5051414;28;20060;-78
2021/01/13 04:18:37;;;;;;;8.63;5.72;;;;;;;;;;5051500;28;20021;-78
2021/01/13 04:21:04;;;;;;;8.07;5.60;;;;;;;;;;5051490;28;20044;-78
2021/01/13 04:23:30;;;;;;;7.85;5.82;;;;;;;;;;5049952;28;20021;-78
2021/01/13 04:25:57;;;;;;;7.88;5.32;;;;;;;;;;5051038;28;20069;-78
2021/01/13 04:28:23;;;;;;;9.05;6.15;;;;;;;;;;5051169;28;20044;-77
2021/01/13 04:30:49;;;;;;;7.78;5.22;;;;;;;;;;5049874;28;20025;-77
2021/01/13 04:33:15;;;;;;;7.18;4.70;;;;;;;;;;5050137;28;20487;-78
2021/01/13 04:35:41;;;;;;;7.68;4.93;;;;;;;;;;5050093;28;20464;-78
2021/01/13 04:38:09;;;;;;;8.20;4.65;;;;;;;;;;5050050;28;20103;-78
2021/01/13 04:40:36;;;;;;;6.20;4.20;;;;;;;;;;5049898;28;20056;-78
2021/01/13 04:43:04;;;;;;;12.20;4.75;;;;;;;;;;5050129;28;20025;-79
2021/01/13 04:45:41;;;;;;;9.07;4.22;;;;;;;;;;5049998;28;20029;-78
2021/01/13 04:48:12;;;;;;;7.05;4.60;;;;;;;;;;5049902;28;20021;-78
2021/01/13 04:50:42;;;;;;;6.22;3.90;;;;;;;;;;5051213;28;20036;-79
2021/01/13 04:53:16;;;;;;;7.80;4.15;;;;;;;;;;5051331;28;20017;-79
2021/01/13 04:55:56;;;;;;;7.60;4.97;;;;;;;;;;5049895;28;20033;-78
2021/01/13 04:58:22;;;;;;;7.40;4.22;;;;;;;;;;5049914;28;20388;-78
2021/01/13 05:00:51;;;;;;;7.30;4.47;;;;;;;;;;5049773;28;20028;-78
2021/01/13 05:03:26;;;;;;;8.98;4.43;;;;;;;;;;5051112;28;20017;-78
2021/01/13 05:06:04;;;;;;;6.50;3.92;;;;;;;;;;5049753;28;20043;-78
2021/01/13 05:08:30;;;;;;;6.43;4.03;;;;;;;;;;5051068;28;20029;-77
2021/01/13 05:11:16;;;;;;;6.57;4.40;;;;;;;;;;5051446;28;20379;-78
2021/01/13 05:13:46;;;;;;;7.05;3.97;;;;;;;;;;5053253;28;20029;-78
2021/01/13 05:16:13;;;;;;;7.57;4.38;;;;;;;;;;5054376;28;20040;-78
2021/01/13 05:18:41;;;;;;;6.82;3.70;;;;;;;;;;5053895;28;20017;-79
2021/01/13 05:21:16;;;;;;;7.30;3.92;;;;;;;;;;5053869;28;20028;-78
2021/01/13 05:23:44;;;;;;;6.35;3.88;;;;;;;;;;5054522;28;20025;-78
2021/01/13 05:26:16;;;;;;;9.20;4.13;;;;;;;;;;5054589;28;20056;-78
2021/01/13 05:28:56;;;;;;;6.10;3.63;;;;;;;;;;5054587;28;20021;-77
2021/01/13 05:31:25;;;;;;;7.88;4.10;;;;;;;;;;5054409;28;20090;-78
2021/01/13 05:33:51;;;;;;;6.80;3.70;;;;;;;;;;5053103;28;20028;-78
2021/01/13 05:36:18;;;;;;;8.23;4.20;;;;;;;;;;5054187;28;20112;-78
2021/01/13 05:39:03;;;;;;;7.53;4.35;;;;;;;;;;5052736;28;20052;-78
2021/01/13 05:41:29;;;;;;;8.18;3.78;;;;;;;;;;5054086;28;20400;-78
2021/01/13 05:43:55;;;;;;;5.40;3.58;;;;;;;;;;5052624;28;20075;-78
2021/01/13 05:46:21;;;;;;;7.25;3.70;;;;;;;;;;5054034;28;20040;-78
2021/01/13 05:48:48;;;;;;;6.43;3.33;;;;;;;;;;5054124;28;20025;-78
2021/01/13 05:51:14;;;;;;;9.77;3.58;;;;;;;;;;5052850;28;20021;-77
2021/01/13 05:53:53;;;;;;;6.22;3.38;;;;;;;;;;5053679;28;20025;-77
2021/01/13 05:56:19;;;;;;;6.28;3.45;;;;;;;;;;5052455;28;20233;-78
2021/01/13 05:58:46;;;;;;;5.00;3.10;;;;;;;;;;5052052;28;20025;-77
2021/01/13 06:01:20;;;;;;;5.22;3.00;;;;;;;;;;5053284;28;20021;-78
2021/01/13 06:03:47;;;;;;;5.03;2.90;;;;;;;;;;5051705;28;20025;-79
2021/01/13 06:06:17;;;;;;;7.97;2.75;;;;;;;;;;5052991;28;20112;-77
2021/01/13 06:08:44;;;;;;;5.53;2.55;;;;;;;;;;5051814;28;20082;-77
2021/01/13 06:11:12;;;;;;;4.53;2.42;;;;;;;;;;5053147;28;20021;-77
2021/01/13 06:13:41;;;;;;;5.55;2.88;;;;;;;;;;5051598;28;20029;-79
2021/01/13 06:16:07;;;;;;;4.95;2.70;;;;;;;;;;5051487;28;20117;-78
2021/01/13 06:18:35;;;;;;;4.63;2.55;;;;;;;;;;5052882;28;20040;-77
2021/01/13 06:21:27;;;;;;;3.67;2.17;;;;;;;;;;5051555;28;20021;-78
2021/01/13 06:23:53;;;;;;;5.10;2.40;;;;;;;;;;5050784;28;20094;-78
2021/01/13 06:26:20;;;;;;;6.47;2.30;;;;;;;;;;5053197;28;20497;-78
2021/01/13 06:28:52;;;;;;;5.00;2.63;;;;;;;;;;5053163;28;20021;-77
2021/01/13 06:31:22;;;;;;;4.93;2.35;;;;;;;;;;5053237;28;20025;-77
2021/01/13 06:33:51;;;;;;;4.60;2.08;;;;;;;;;;5051991;28;20476;-78
2021/01/13 06:36:21;;;;;;;4.05;2.00;;;;;;;;;;5051719;28;20033;-78
2021/01/13 06:38:55;;;;;;;6.90;2.30;;;;;;;;;;5052864;28;20104;-77
2021/01/13 06:41:21;;;;;;;5.15;2.13;;;;;;;;;;5051766;28;20029;-78
2021/01/13 06:43:57;;;;;;;7.60;2.92;;;;;;;;;;5051590;28;20017;-78
2021/01/13 06:46:24;;;;;;;7.03;2.05;;;;;;;;;;5034460;28;20045;-76
2021/01/13 06:48:50;;;;;;;11.80;2.13;;;;;;;;;;5032016;28;20022;-77
2021/01/13 06:51:16;;;;;;;6.72;2.40;;;;;;;;;;5043399;28;20504;-76
2021/01/13 06:53:45;;;;;;;4.88;2.00;;;;;;;;;;5052273;28;20035;-77
2021/01/13 06:56:11;;;;;;;4.32;1.85;;;;;;;;;;5049859;28;20605;-77
2021/01/13 06:58:37;;;;;;;6.45;1.90;;;;;;;;;;5051870;28;20116;-77
2021/01/13 07:01:04;;;;;;;6.32;1.73;;;;;;;;;;5051884;28;20025;-78
2021/01/13 07:03:32;;;;;;;66.80;4.00;;;;;;;;;;5038123;28;20036;-79
2021/01/13 07:06:10;;;;;;;10.07;2.40;;;;;;;;;;5031505;28;20033;-79
2021/01/13 07:08:37;;;;;;;19.05;2.38;;;;;;;;;;5030584;28;20041;-78
2021/01/13 07:11:10;;;;;;;12.63;1.80;;;;;;;;;;5030319;28;20120;-78
2021/01/13 07:13:39;;;;;;;10.25;1.63;;;;;;;;;;5032142;28;20033;-78
2021/01/13 07:16:05;;;;;;;9.80;1.40;;;;;;;;;;5030519;28;20025;-78
2021/01/13 07:18:32;;;;;;;5.60;1.70;;;;;;;;;;5030215;28;20021;-78
2021/01/13 07:21:05;;;;;;;7.82;1.90;;;;;;;;;;5030576;28;20025;-78
2021/01/13 07:23:33;;;;;;;8.82;1.23;;;;;;;;;;5030693;28;20522;-78
2021/01/13 07:26:00;;;;;;;3.00;0.98;;;;;;;;;;5031795;28;20051;-78
2021/01/13 07:28:26;;;;;;;4.30;1.85;;;;;;;;;;5031697;28;20017;-78
2021/01/13 07:30:53;;;;;;;4.55;1.10;;;;;;;;;;5038491;28;20025;-78
2021/01/13 07:33:19;;;;;;;5.97;0.90;;;;;;;;;;5051291;28;20025;-79
2021/01/13 07:35:49;;;;;;;5.88;1.30;;;;;;;;;;5050775;28;20502;-77
2021/01/13 07:38:15;;;;;;;10.02;1.17;;;;;;;;;;5051162;28;20036;-76
2021/01/13 07:40:55;;;;;;;5.65;1.02;;;;;;;;;;5050489;28;20056;-77
2021/01/13 07:43:38;;;;;;;4.25;0.80;;;;;;;;;;5050273;28;20033;-76
2021/01/13 07:46:08;;;;;;;4.45;1.15;;;;;;;;;;5050311;28;20052;-77
2021/01/13 07:48:53;;;;;;;3.92;1.20;;;;;;;;;;5033847;28;20017;-78
2021/01/13 07:51:20;;;;;;;3.63;0.90;;;;;;;;;;5031857;28;20025;-78
2021/01/13 07:53:51;;;;;;;4.15;0.88;;;;;;;;;;5031583;28;20514;-77
2021/01/13 07:56:22;;;;;;;5.15;1.17;;;;;;;;;;5030393;28;20029;-77
2021/01/13 07:59:17;;;;;;;5.03;0.95;;;;;;;;;;5030571;28;20179;-87
2021/01/13 08:02:03;;;;;;;9.30;1.02;;;;;;;;;;5029355;28;20073;-76
2021/01/13 08:04:36;;;;;;;8.52;1.10;;;;;;;;;;5031680;28;20126;-76
2021/01/13 08:07:02;;;;;;;3.90;0.77;;;;;;;;;;5030614;28;20026;-75
2021/01/13 08:09:34;;;;;;;6.82;1.40;;;;;;;;;;5031859;28;20029;-75
2021/01/13 08:12:09;;;;;;;4.18;0.90;;;;;;;;;;5031661;28;20494;-72
2021/01/13 08:14:44;;;;;;;7.20;1.58;;;;;;;;;;5031355;28;20104;-78
2021/01/13 08:17:18;;;;;;;8.20;1.20;;;;;;;;;;5035932;28;20025;-77
2021/01/13 08:19:59;;;;;;;22.50;2.00;;;;;;;;;;5051381;28;20051;-79
2021/01/13 08:22:27;;;;;;;13.43;1.70;;;;;;;;;;5050124;28;20022;-77
2021/01/13 08:25:01;;;;;;;45.95;3.08;;;;;;;;;;5051199;28;20059;-78
2021/01/13 08:27:27;;;;;;;16.95;2.17;;;;;;;;;;5051166;28;20066;-78
2021/01/13 08:29:58;;;;;;;18.92;2.28;;;;;;;;;;5050034;28;20029;-79
2021/01/13 08:32:31;;;;;;;15.68;2.00;;;;;;;;;;5049867;28;20017;-76
2021/01/13 08:35:03;;;;;;;10.68;2.17;;;;;;;;;;5050858;28;20027;-78
2021/01/13 08:37:33;;;;;;;16.48;1.88;;;;;;;;;;5042261;28;20076;-75
2021/01/13 08:40:00;;;;;;;13.57;2.00;;;;;;;;;;5050438;28;20072;-76
2021/01/13 08:42:31;;;;;;;16.08;3.05;;;;;;;;;;5049058;28;20024;-75
2021/01/13 08:44:58;;;;;;;14.65;1.75;;;;;;;;;;5046943;28;20041;-77
2021/01/13 08:47:27;;;;;;;15.95;2.05;;;;;;;;;;5051629;28;20024;-81
2021/01/13 08:50:11;;;;;;;11.75;1.77;;;;;;;;;;5055058;28;20500;-75
2021/01/13 08:52:46;;;;;;;13.75;1.88;;;;;;;;;;5052514;28;20735;-74
2021/01/13 08:55:14;;;;;;;5.18;1.77;;;;;;;;;;5053087;28;20032;-76
2021/01/13 08:57:50;;;;;;;11.90;1.90;;;;;;;;;;5053629;28;20025;-75
2021/01/13 09:00:18;;;;;;;11.75;1.80;;;;;;;;;;5053428;28;20115;-75
2021/01/13 09:02:53;;;;;;;8.15;1.60;;;;;;;;;;5054700;28;20016;-76
2021/01/13 09:05:28;;;;;;;7.00;1.60;;;;;;;;;;5053217;28;20037;-75
2021/01/13 09:07:54;;;;;;;5.45;1.50;;;;;;;;;;5054343;28;20025;-73
2021/01/13 09:10:21;;;;;;;4.43;1.38;;;;;;;;;;5045322;28;20088;-73
2021/01/13 09:12:47;;;;;;;6.03;1.48;;;;;;;;;;5034553;28;20025;-73
2021/01/13 09:15:14;;;;;;;5.10;1.40;;;;;;;;;;5034372;28;20103;-73
2021/01/13 09:17:41;;;;;;;4.70;1.60;;;;;;;;;;5033461;28;20384;-72
2021/01/13 09:20:08;;;;;;;5.93;1.52;;;;;;;;;;5033042;28;20121;-73
2021/01/13 09:22:49;;;;;;;4.05;1.23;;;;;;;;;;5034413;28;20040;-75
2021/01/13 09:25:20;;;;;;;9.63;1.67;;;;;;;;;;5046468;28;20075;-75
2021/01/13 09:27:51;;;;;;;5.95;1.33;;;;;;;;;;5041325;28;20079;-75
2021/01/13 09:30:36;;;;;;;7.63;1.50;;;;;;;;;;5035880;28;20052;-72
2021/01/13 09:33:10;;;;;;;4.03;1.15;;;;;;;;;;5053841;28;20025;-75
2021/01/13 09:35:39;;;;;;;7.78;1.40;;;;;;;;;;5054040;28;20013;-75
2021/01/13 09:38:08;;;;;;;7.60;1.70;;;;;;;;;;5049173;28;20036;-74
2021/01/13 09:40:52;;;;;;;5.53;1.40;;;;;;;;;;5052183;28;20087;-74
2021/01/13 09:43:29;;;;;;;4.65;1.40;;;;;;;;;;5053500;28;20024;-74
2021/01/13 09:45:56;;;;;;;8.80;1.70;;;;;;;;;;5052634;28;20033;-75
2021/01/13 09:48:22;;;;;;;7.55;1.63;;;;;;;;;;5053897;28;20114;-73
2021/01/13 09:50:57;;;;;;;8.70;1.80;;;;;;;;;;5053736;28;20029;-74
2021/01/13 09:53:28;;;;;;;7.70;1.50;;;;;;;;;;5053849;28;20025;-74
2021/01/13 09:55:55;;;;;;;6.05;1.63;;;;;;;;;;5045914;28;20032;-74
2021/01/13 09:58:34;;;;;;;7.10;1.67;;;;;;;;;;5053628;28;20017;-75
2021/01/13 10:01:07;;;;;;;11.27;1.60;;;;;;;;;;5053806;28;20075;-72
2021/01/13 10:03:33;;;;;;;6.63;1.38;;;;;;;;;;5052427;28;20017;-74
2021/01/13 10:05:59;;;;;;;6.20;1.52;;;;;;;;;;5053697;28;20045;-74
2021/01/13 10:08:32;;;;;;;8.30;1.60;;;;;;;;;;5052340;28;20025;-74
2021/01/13 10:11:02;;;;;;;7.03;1.50;;;;;;;;;;5052399;28;20422;-74
2021/01/13 10:13:30;;;;;;;4.35;1.20;;;;;;;;;;5053197;28;20491;-74
2021/01/13 10:16:00;;;;;;;4.63;1.30;;;;;;;;;;5052055;28;20041;-74
2021/01/13 10:18:27;;;;;;;4.60;1.20;;;;;;;;;;5053403;28;20021;-74
2021/01/13 10:21:00;;;;;;;10.05;1.75;;;;;;;;;;5053306;28;20443;-73
2021/01/13 10:23:27;;;;;;;6.93;1.70;;;;;;;;;;5053230;28;20009;-74
2021/01/13 10:26:07;;;;;;;7.57;1.40;;;;;;;;;;5051785;28;20057;-74
2021/01/13 10:28:33;;;;;;;7.38;1.30;;;;;;;;;;5053101;28;20530;-75
2021/01/13 10:31:00;;;;;;;4.25;1.10;;;;;;;;;;5049899;28;20120;-75
2021/01/13 10:33:45;;;;;;;11.82;1.33;;;;;;;;;;5031968;28;20021;-75
2021/01/13 10:36:30;;;;;;;3.83;1.40;;;;;;;;;;5031887;28;20109;-72
2021/01/13 10:38:57;;;;;;;3.53;1.15;;;;;;;;;;5046933;28;20033;-74
2021/01/13 10:41:33;;;;;;;10.88;1.65;;;;;;;;;;5051708;28;20075;-76
2021/01/13 10:44:01;;;;;;;7.45;1.23;;;;;;;;;;5051442;28;20091;-78
2021/01/13 10:46:30;;;;;;;5.97;1.55;;;;;;;;;;5051213;28;20124;-76
2021/01/13 10:49:01;;;;;;;5.47;1.42;;;;;;;;;;5050853;28;20052;-76
2021/01/13 10:51:32;;;;;;;5.88;1.33;;;;;;;;;;5051582;28;20021;-76
2021/01/13 10:54:04;;;;;;;5.20;1.10;;;;;;;;;;5052849;28;20087;-76
2021/01/13 10:56:32;;;;;;;3.83;1.05;;;;;;;;;;5051341;28;20659;-76
2021/01/13 10:59:02;;;;;;;3.15;1.02;;;;;;;;;;5051325;28;20112;-76
2021/01/13 11:01:30;;;;;;;4.72;1.38;;;;;;;;;;5051223;28;20078;-76
2021/01/13 11:03:56;;;;;;;5.95;1.30;;;;;;;;;;5051259;28;20025;-76
2021/01/13 11:06:25;;;;;;;5.43;1.20;;;;;;;;;;5052462;28;20029;-76
2021/01/13 11:08:54;;;;;;;5.65;1.30;;;;;;;;;;5053023;28;20465;-76
2021/01/13 11:11:20;;;;;;;4.53;1.00;;;;;;;;;;5050729;28;20029;-75
2021/01/13 11:13:47;;;;;;;4.50;1.45;;;;;;;;;;5051246;28;20021;-77
2021/01/13 11:16:13;;;;;;;6.22;1.30;;;;;;;;;;5052267;28;20032;-77
2021/01/13 11:18:41;;;;;;;5.95;1.27;;;;;;;;;;5052367;28;20025;-76
2021/01/13 11:21:10;;;;;;;6.63;1.15;;;;;;;;;;5051479;28;20504;-76
2021/01/13 11:23:43;;;;;;;4.30;1.02;;;;;;;;;;5051950;28;20112;-76
2021/01/13 11:26:09;;;;;;;5.78;1.20;;;;;;;;;;5052110;28;20041;-76
2021/01/13 11:28:36;;;;;;;47.85;4.90;;;;;;;;;;5050645;28;20024;-76
2021/01/13 11:31:04;;;;;;;31.48;3.45;;;;;;;;;;5048413;28;20021;-76
2021/01/13 11:33:30;;;;;;;46.80;4.25;;;;;;;;;;5031877;28;20104;-74
2021/01/13 11:35:56;;;;;;;33.58;3.40;;;;;;;;;;5031917;28;20104;-75
2021/01/13 11:38:35;;;;;;;19.27;2.88;;;;;;;;;;5030469;28;20025;-75
2021/01/13 11:41:07;;;;;;;27.25;2.40;;;;;;;;;;5031859;28;20046;-75
2021/01/13 11:43:33;;;;;;;;;;;;;;;;;;5032525;28;20030;-75
2021/01/13 11:46:08;;;;;;;21.25;2.38;;;;;;;;;;5031765;28;20455;-75
2021/01/13 11:48:48;;;;;;;24.58;2.53;;;;;;;;;;5030299;28;20057;-75
2021/01/13 11:51:17;;;;;;;19.70;2.20;;;;;;;;;;5041072;28;20499;-75
2021/01/13 11:53:45;;;;;;;16.05;2.45;;;;;;;;;;5051155;28;20060;-75
2021/01/13 11:56:11;;;;;;;11.25;2.15;;;;;;;;;;5051295;28;20027;-75
2021/01/13 11:58:45;;;;;;;11.50;2.22;;;;;;;;;;5051347;28;20025;-75
2021/01/13 12:01:11;;;;;;;35.03;3.92;;;;;;;;;;5051250;28;20131;-75
2021/01/13 12:03:37;;;;;;;9.15;2.08;;;;;;;;;;5051590;28;20036;-74
2021/01/13 12:06:07;;;;;;;8.75;2.38;;;;;;;;;;5051404;28;20043;-75
2021/01/13 12:08:33;;;;;;;10.60;2.17;;;;;;;;;;5051456;28;20045;-76
2021/01/13 12:10:59;;;;;;;10.95;1.92;;;;;;;;;;5051451;28;20029;-72
2021/01/13 12:13:30;;;;;;;9.50;1.80;;;;;;;;;;5050081;28;20029;-72
2021/01/13 12:15:57;;;;;;;8.43;1.80;;;;;;;;;;5048989;28;20040;-72
2021/01/13 12:18:26;;;;;;;15.55;1.90;;;;;;;;;;5051226;28;20021;-73
2021/01/13 12:20:56;;;;;;;9.70;1.95;;;;;;;;;;5050675;28;20013;-72
2021/01/13 12:23:28;;;;;;;12.63;1.67;;;;;;;;;;5049501;28;20052;-72
2021/01/13 12:25:54;;;;;;;;;;;;;;;;;;5051572;28;20472;-73
2021/01/13 12:28:25;;;;;;;10.10;1.70;;;;;;;;;;5051358;28;19912;-74
2021/01/13 12:30:51;;;;;;;16.92;1.50;;;;;;;;;;5051127;28;20052;-74
2021/01/13 12:33:18;;;;;;;5.20;1.27;;;;;;;;;;5049484;28;20052;-74
2021/01/13 12:35:45;;;;;;;7.40;1.58;;;;;;;;;;5050721;28;20163;-74
2021/01/13 12:38:11;;;;;;;4.57;1.25;;;;;;;;;;5050684;28;20025;-73
2021/01/13 12:40:37;;;;;;;8.15;1.48;;;;;;;;;;5049479;28;20047;-75
2021/01/13 12:43:13;;;;;;;7.40;1.38;;;;;;;;;;5051249;28;20036;-73
2021/01/13 12:45:39;;;;;;;9.15;1.52;;;;;;;;;;5051081;28;20028;-74
2021/01/13 12:48:05;;;;;;;6.00;1.45;;;;;;;;;;5051221;28;20021;-73
2021/01/13 12:50:31;;;;;;;6.07;1.50;;;;;;;;;;5049314;28;20075;-73
2021/01/13 12:52:58;;;;;;;8.02;1.15;;;;;;;;;;5050908;28;20463;-73
2021/01/13 12:55:24;;;;;;;5.30;1.40;;;;;;;;;;5050772;28;20029;-73
2021/01/13 12:57:50;;;;;;;4.18;1.17;;;;;;;;;;5049841;28;20444;-73
2021/01/13 13:00:16;;;;;;;4.95;1.00;;;;;;;;;;5049588;28;20499;-74
2021/01/13 13:02:42;;;;;;;6.32;1.40;;;;;;;;;;5049415;28;20043;-73
2021/01/13 13:05:09;;;;;;;6.28;1.23;;;;;;;;;;5049427;28;20091;-75
2021/01/13 13:07:35;;;;;;;5.50;1.38;;;;;;;;;;5042928;28;20484;-74
2021/01/13 13:10:01;;;;;;;5.93;1.80;;;;;;;;;;5051024;28;20036;-75
2021/01/13 13:12:27;;;;;;;4.70;1.20;;;;;;;;;;5043446;28;20384;-77
2021/01/13 13:14:54;;;;;;;6.40;1.48;;;;;;;;;;5039281;28;20021;-75
2021/01/13 13:17:21;;;;;;;6.45;1.42;;;;;;;;;;5049511;28;20036;-76
2021/01/13 13:19:47;;;;;;;4.43;1.45;;;;;;;;;;5034122;28;20021;-75
2021/01/13 13:22:13;;;;;;;12.95;1.20;;;;;;;;;;5029621;28;20037;-76
2021/01/13 13:24:39;;;;;;;8.05;1.60;;;;;;;;;;5039390;28;20029;-76
2021/01/13 13:27:08;;;;;;;3.45;0.82;;;;;;;;;;5049590;28;20151;-76
2021/01/13 13:29:35;;;;;;;7.45;1.58;;;;;;;;;;5050790;28;20025;-75
2021/01/13 13:32:01;;;;;;;3.95;1.30;;;;;;;;;;5050558;28;20099;-75
2021/01/13 13:34:27;;;;;;;5.13;1.20;;;;;;;;;;5052266;28;20024;-74
2021/01/13 13:36:59;;;;;;;4.13;1.13;;;;;;;;;;5054221;28;20055;-72
2021/01/13 13:39:25;;;;;;;;;;;;;;;;;;5053393;28;20392;-72
2021/01/13 13:41:51;;;;;;;4.40;1.15;;;;;;;;;;5054199;28;19905;-72
2021/01/13 13:44:17;;;;;;;4.03;1.13;;;;;;;;;;5054169;28;20021;-73
2021/01/13 13:46:47;;;;;;;4.85;1.10;;;;;;;;;;5053876;28;20427;-75
2021/01/13 13:49:13;;;;;;;5.70;2.10;;;;;;;;;;5052856;28;20064;-78
2021/01/13 13:51:43;;;;;;;3.53;1.10;;;;;;;;;;5052756;28;20017;-77
2021/01/13 13:54:09;;;;;;;3.42;1.02;;;;;;;;;;5052634;28;20479;-76
2021/01/13 13:56:35;;;;;;;3.17;0.98;;;;;;;;;;5052506;28;20021;-72
2021/01/13 13:59:01;;;;;;;5.88;1.63;;;;;;;;;;5052208;28;20033;-74
2021/01/13 14:01:31;;;;;;;3.63;0.98;;;;;;;;;;5052283;28;20080;-72
2021/01/13 14:03:57;;;;;;;6.75;1.75;;;;;;;;;;5051369;28;20024;-72
2021/01/13 14:06:24;;;;;;;3.65;0.85;;;;;;;;;;5053410;28;20661;-77
2021/01/13 14:08:50;;;;;;;6.25;1.25;;;;;;;;;;5053687;28;20095;-76
2021/01/13 14:11:16;;;;;;;8.13;1.50;;;;;;;;;;5053701;28;20079;-75
2021/01/13 14:13:42;;;;;;;8.05;1.75;;;;;;;;;;5053407;28;20449;-73
2021/01/13 14:16:08;;;;;;;6.45;1.80;;;;;;;;;;5053324;28;20025;-78
2021/01/13 14:18:34;;;;;;;5.82;1.40;;;;;;;;;;5044445;28;20075;-76
2021/01/13 14:21:00;;;;;;;4.00;1.20;;;;;;;;;;5075644;28;20068;-74
2021/01/13 14:23:26;;;;;;;4.50;1.45;;;;;;;;;;5053599;28;20468;-80
2021/01/13 14:25:53;;;;;;;4.97;1.45;;;;;;;;;;5052376;28;20071;-80
2021/01/13 14:28:19;;;;;;;5.32;1.40;;;;;;;;;;5053609;28;20107;-79
2021/01/13 14:30:45;;;;;;;7.00;1.65;;;;;;;;;;5053205;28;20028;-81
2021/01/13 14:33:11;;;;;;;4.20;1.20;;;;;;;;;;5053117;28;20028;-81
2021/01/13 14:35:37;;;;;;;14.07;1.95;;;;;;;;;;5052958;28;20092;-75
2021/01/13 14:38:03;;;;;;;4.88;1.20;;;;;;;;;;5051498;28;20029;-74
2021/01/13 14:40:29;;;;;;;11.05;1.50;;;;;;;;;;5051622;28;20168;-76
2021/01/13 14:42:55;;;;;;;7.22;1.50;;;;;;;;;;5052951;28;20124;-72
2021/01/13 14:45:21;;;;;;;5.47;1.45;;;;;;;;;;5050308;28;20555;-75
2021/01/13 14:47:47;;;;;;;7.22;1.85;;;;;;;;;;5052817;28;20035;-76
2021/01/13 14:50:13;;;;;;;6.15;1.40;;;;;;;;;;5051570;28;20055;-72